createdAt,value
2019-02-07T00:00:47.168Z,10.00
2019-02-07T00:03:16.567Z,11.90
2019-02-07T00:05:45.958Z,12.37
2019-02-07T00:08:15.351Z,10.87
2019-02-07T00:10:44.727Z,12.77
2019-02-07T00:13:14.120Z,11.47
2019-02-07T00:15:43.489Z,12.37
2019-02-07T00:18:12.809Z,10.13
2019-02-07T00:20:42.179Z,12.47
2019-02-07T00:23:11.578Z,12.03
2019-02-07T00:25:41.009Z,10.33
2019-02-07T00:28:10.337Z,10.00
2019-02-07T00:30:39.734Z,9.13
2019-02-07T00:33:09.057Z,10.33
2019-02-07T00:35:38.363Z,10.07
2019-02-07T00:38:07.686Z,10.93
2019-02-07T00:40:37.075Z,11.20
2019-02-07T00:43:06.447Z,11.73
2019-02-07T00:45:35.762Z,9.90
2019-02-07T00:48:05.295Z,6.73
2019-02-07T00:50:34.618Z,9.77
2019-02-07T00:53:04.697Z,11.13
2019-02-07T00:55:34.101Z,10.80
2019-02-07T00:58:03.412Z,11.13
2019-02-07T01:00:32.862Z,12.50
2019-02-07T01:03:02.181Z,11.67
2019-02-07T01:05:31.545Z,11.13
2019-02-07T01:08:01.317Z,11.03
2019-02-07T01:10:31.255Z,10.80
2019-02-07T01:13:00.581Z,12.00
2019-02-07T01:15:29.973Z,11.10
2019-02-07T01:17:59.272Z,10.13
2019-02-07T01:20:28.687Z,8.63
2019-02-07T01:22:58.440Z,8.97
2019-02-07T01:25:27.805Z,9.43
2019-02-07T01:27:57.128Z,8.13
2019-02-07T01:30:28.339Z,9.30
2019-02-07T01:32:57.662Z,9.63
2019-02-07T01:35:27.019Z,9.60
2019-02-07T01:37:56.599Z,9.83
2019-02-07T01:40:25.973Z,8.50
2019-02-07T01:42:55.878Z,10.13
2019-02-07T01:45:25.549Z,9.80
2019-02-07T01:47:54.875Z,8.83
2019-02-07T01:50:27.902Z,9.57
2019-02-07T01:52:57.196Z,10.10
2019-02-07T01:55:26.670Z,9.37
2019-02-07T01:57:56.102Z,8.23
2019-02-07T02:00:25.493Z,9.63
2019-02-07T02:02:54.861Z,8.53
2019-02-07T02:05:24.239Z,9.07
2019-02-07T02:07:53.557Z,9.97
2019-02-07T02:10:28.655Z,9.23
2019-02-07T02:12:58.047Z,7.87
2019-02-07T02:15:27.583Z,7.57
2019-02-07T02:17:56.944Z,7.83
2019-02-07T02:20:26.887Z,9.37
2019-02-07T02:22:56.552Z,7.90
2019-02-07T02:25:25.858Z,8.87
2019-02-07T02:27:55.248Z,7.57
2019-02-07T02:30:31.294Z,9.37
2019-02-07T02:33:01.039Z,8.43
2019-02-07T02:35:30.362Z,8.40
2019-02-07T02:37:59.733Z,9.00
2019-02-07T02:40:29.114Z,9.57
2019-02-07T02:42:58.578Z,8.13
2019-02-07T02:45:37.097Z,6.87
2019-02-07T02:47:58.929Z,7.77
2019-02-07T02:50:28.231Z,8.40
2019-02-07T02:52:57.618Z,7.23
2019-02-07T02:55:28.624Z,8.80
2019-02-07T02:57:57.950Z,6.93
2019-02-07T03:00:39.344Z,7.57
2019-02-07T03:03:19.375Z,8.17
2019-02-07T03:06:08.748Z,8.63
2019-02-07T03:08:38.386Z,9.70
2019-02-07T03:11:10.510Z,8.00
2019-02-07T03:13:57.778Z,8.87
2019-02-07T03:16:34.711Z,8.57
2019-02-07T03:19:08.925Z,8.37
2019-02-07T03:21:54.934Z,6.17
2019-02-07T03:24:25.902Z,8.00
2019-02-07T03:26:59.430Z,8.23
2019-02-07T03:29:46.743Z,7.90
2019-02-07T03:32:20.407Z,7.60
2019-02-07T03:35:00.486Z,7.13
2019-02-07T03:37:29.567Z,8.13
2019-02-07T03:40:00.571Z,7.40
2019-02-07T03:42:34.595Z,8.47
2019-02-07T03:45:22.565Z,7.40
2019-02-07T03:48:09.975Z,7.23
2019-02-07T03:50:59.082Z,6.83
2019-02-07T03:53:45.552Z,6.83
2019-02-07T03:56:25.317Z,4.90
2019-02-07T03:59:14.719Z,6.77
2019-02-07T04:01:54.617Z,7.13
2019-02-07T04:04:32.833Z,5.40
2019-02-07T04:07:06.430Z,6.80
2019-02-07T04:09:49.164Z,7.40
2019-02-07T04:12:38.255Z,6.83
2019-02-07T04:15:15.550Z,6.87
2019-02-07T04:17:44.610Z,6.60
2019-02-07T04:20:15.588Z,7.93
2019-02-07T04:22:50.543Z,8.07
2019-02-07T04:25:21.569Z,5.83
2019-02-07T04:27:52.875Z,7.37
2019-02-07T04:30:40.129Z,6.90
2019-02-07T04:33:27.221Z,7.20
2019-02-07T04:35:58.855Z,7.63
2019-02-07T04:38:32.416Z,7.03
2019-02-07T04:41:03.433Z,7.37
2019-02-07T04:43:40.153Z,7.47
2019-02-07T04:46:26.397Z,7.07
2019-02-07T04:49:05.369Z,6.53
2019-02-07T04:51:45.172Z,6.43
2019-02-07T04:54:22.294Z,7.03
2019-02-07T04:56:53.343Z,8.17
2019-02-07T04:59:37.666Z,6.53
2019-02-07T05:02:14.510Z,7.00
2019-02-07T05:04:48.102Z,6.73
2019-02-07T05:07:27.707Z,7.03
2019-02-07T05:09:59.056Z,7.07
2019-02-07T05:12:32.941Z,6.40
2019-02-07T05:15:15.897Z,6.87
2019-02-07T05:20:56.527Z,6.57
2019-02-07T05:23:27.462Z,6.20
2019-02-07T05:26:03.908Z,4.07
2019-02-07T05:28:40.565Z,7.30
2019-02-07T05:31:20.278Z,5.33
2019-02-07T05:33:51.290Z,7.43
2019-02-07T05:36:25.939Z,6.27
2019-02-07T05:39:08.903Z,7.13
2019-02-07T05:41:42.794Z,6.53
2019-02-07T05:44:19.573Z,6.33
2019-02-07T05:46:53.156Z,6.20
2019-02-07T05:49:25.495Z,6.90
2019-02-07T05:52:12.779Z,6.90
2019-02-07T05:54:52.533Z,6.87
2019-02-07T05:57:30.390Z,7.40
2019-02-07T06:00:04.012Z,6.27
2019-02-07T06:02:34.950Z,6.67
2019-02-07T06:05:24.165Z,7.83
2019-02-07T06:08:10.951Z,5.67
2019-02-07T06:10:48.889Z,8.10
2019-02-07T06:13:25.429Z,4.67
2019-02-07T06:16:12.474Z,6.60
2019-02-07T06:18:59.663Z,6.07
2019-02-07T06:21:30.693Z,6.50
2019-02-07T06:24:01.654Z,7.13
2019-02-07T06:26:48.788Z,7.90
2019-02-07T06:29:34.788Z,5.17
2019-02-07T06:32:08.884Z,5.90
2019-02-07T06:34:42.517Z,7.70
2019-02-07T06:37:16.563Z,9.37
2019-02-07T06:40:03.966Z,7.70
2019-02-07T06:42:34.911Z,6.80
2019-02-07T06:45:20.539Z,5.47
2019-02-07T06:48:09.931Z,5.10
2019-02-07T06:50:50.088Z,5.97
2019-02-07T06:53:37.440Z,7.47
2019-02-07T06:56:24.432Z,6.70
2019-02-07T06:59:02.329Z,6.97
2019-02-07T07:01:45.264Z,7.00
2019-02-07T07:04:16.298Z,5.57
2019-02-07T07:06:47.233Z,8.03
2019-02-07T07:09:33.327Z,5.93
2019-02-07T07:12:22.693Z,6.23
2019-02-07T07:14:53.666Z,7.73
2019-02-07T07:17:26.066Z,8.27
2019-02-07T07:20:13.448Z,8.00
2019-02-07T07:22:44.419Z,7.47
2019-02-07T07:25:15.359Z,8.33
2019-02-07T07:27:59.588Z,8.67
2019-02-07T07:30:33.360Z,9.00
2019-02-07T07:33:07.048Z,8.80
2019-02-07T07:35:38.004Z,8.93
2019-02-07T07:38:11.578Z,7.77
2019-02-07T07:40:42.793Z,7.17
2019-02-07T07:43:30.463Z,8.10
2019-02-07T07:46:07.233Z,10.00
2019-02-07T07:48:51.620Z,9.80
2019-02-07T07:51:31.711Z,10.43
2019-02-07T07:54:11.513Z,10.03
2019-02-07T07:56:48.636Z,9.87
2019-02-07T07:59:25.492Z,10.13
2019-02-07T08:01:57.130Z,11.33
2019-02-07T08:04:45.565Z,13.33
2019-02-07T08:07:19.446Z,16.20
2019-02-07T08:09:54.471Z,31.90
2019-02-07T08:12:26.402Z,34.83
2019-02-07T08:14:57.348Z,27.73
2019-02-07T08:17:31.189Z,23.33
2019-02-07T08:20:17.925Z,17.37
2019-02-07T08:22:48.859Z,15.17
2019-02-07T08:25:34.757Z,14.43
2019-02-07T08:28:03.909Z,15.07
2019-02-07T08:30:37.318Z,17.57
2019-02-07T08:33:15.260Z,17.13
2019-02-07T08:36:02.668Z,17.40
2019-02-07T08:38:39.187Z,16.43
2019-02-07T08:44:14.178Z,14.33
2019-02-07T08:46:47.783Z,13.90
2019-02-07T08:49:27.525Z,14.80
2019-02-07T08:52:14.674Z,14.83
2019-02-07T08:55:01.584Z,14.80
2019-02-07T08:57:38.881Z,14.03
2019-02-07T09:00:17.562Z,14.20
2019-02-07T09:02:52.094Z,17.97
2019-02-07T09:05:23.212Z,16.60
2019-02-07T09:08:10.148Z,15.17
2019-02-07T09:10:54.278Z,11.27
2019-02-07T09:13:25.907Z,9.37
2019-02-07T09:15:57.133Z,8.43
2019-02-07T09:18:38.095Z,11.40
2019-02-07T09:21:17.715Z,13.70
2019-02-07T09:23:54.310Z,13.60
2019-02-07T09:26:27.972Z,16.60
2019-02-07T09:29:15.044Z,16.03
2019-02-07T09:31:59.004Z,14.57
2019-02-07T09:34:29.963Z,13.67
2019-02-07T09:37:15.733Z,14.63
2019-02-07T09:40:04.856Z,11.60
2019-02-07T09:42:33.938Z,12.43
2019-02-07T09:45:10.779Z,11.77
2019-02-07T09:47:44.272Z,13.27
2019-02-07T09:50:26.891Z,13.27
2019-02-07T09:53:23.546Z,12.23
2019-02-07T09:55:45.867Z,11.97
2019-02-07T09:58:16.812Z,13.33
2019-02-07T10:00:53.355Z,14.10
2019-02-07T10:03:36.770Z,12.43
2019-02-07T10:06:16.508Z,11.50
2019-02-07T10:09:03.129Z,12.20
2019-02-07T10:11:36.635Z,11.57
2019-02-07T10:14:22.431Z,11.43
2019-02-07T10:16:55.942Z,11.37
2019-02-07T10:19:42.908Z,10.87
2019-02-07T10:22:28.916Z,9.87
2019-02-07T10:24:59.801Z,9.77
2019-02-07T10:27:46.385Z,8.43
2019-02-07T10:30:17.100Z,7.60
2019-02-07T10:32:48.404Z,7.30
2019-02-07T10:35:25.222Z,7.40
2019-02-07T10:37:58.586Z,7.30
2019-02-07T10:40:27.674Z,6.53
2019-02-07T10:43:01.202Z,7.87
2019-02-07T10:45:46.984Z,7.20
2019-02-07T10:48:42.782Z,7.43
2019-02-07T10:51:07.837Z,6.37
2019-02-07T10:53:36.931Z,7.13
2019-02-07T10:56:10.665Z,7.43
2019-02-07T10:58:57.252Z,7.30
2019-02-07T11:01:28.500Z,6.97
2019-02-07T11:04:02.067Z,7.33
2019-02-07T11:06:44.859Z,6.30
2019-02-07T11:09:33.676Z,6.47
2019-02-07T11:12:16.706Z,7.87
2019-02-07T11:14:47.702Z,6.80
2019-02-07T11:17:27.547Z,6.87
2019-02-07T11:20:14.223Z,7.53
2019-02-07T11:22:50.631Z,7.07
2019-02-07T11:25:24.042Z,7.43
2019-02-07T11:28:12.915Z,7.63
2019-02-07T11:30:46.296Z,6.60
2019-02-07T11:33:30.099Z,6.70
2019-02-07T11:36:16.848Z,6.97
2019-02-07T11:39:03.865Z,7.87
2019-02-07T11:41:38.065Z,6.33
2019-02-07T11:44:09.018Z,6.27
2019-02-07T11:46:40.996Z,8.10
2019-02-07T11:49:26.633Z,8.23
2019-02-07T11:51:55.970Z,8.40
2019-02-07T11:54:26.934Z,8.17
2019-02-07T11:57:12.807Z,8.47
2019-02-07T12:00:01.642Z,8.07
2019-02-07T12:02:33.538Z,8.87
2019-02-07T12:05:04.487Z,8.53
2019-02-07T12:07:50.059Z,8.10
2019-02-07T12:10:27.591Z,7.97
2019-02-07T12:13:01.002Z,8.20
2019-02-07T12:15:41.114Z,7.50
2019-02-07T12:18:15.709Z,6.97
2019-02-07T12:20:58.675Z,8.40
2019-02-07T12:23:31.236Z,7.80
2019-02-07T12:26:16.902Z,8.17
2019-02-07T12:28:59.821Z,6.87
2019-02-07T12:31:46.591Z,7.13
2019-02-07T12:34:20.001Z,7.73
2019-02-07T12:36:53.878Z,8.03
2019-02-07T12:39:40.539Z,9.07
2019-02-07T12:42:09.622Z,9.07
2019-02-07T12:44:43.476Z,8.60
2019-02-07T12:47:20.059Z,8.73
2019-02-07T12:50:02.770Z,9.20
2019-02-07T12:52:43.756Z,10.40
2019-02-07T12:55:17.295Z,10.53
2019-02-07T12:57:56.967Z,11.30
2019-02-07T13:00:45.624Z,10.70
2019-02-07T13:03:25.102Z,11.00
2019-02-07T13:06:11.819Z,11.20
2019-02-07T13:08:54.775Z,11.73
2019-02-07T13:11:31.635Z,12.23
2019-02-07T13:14:05.355Z,12.47
2019-02-07T13:16:48.376Z,13.27
2019-02-07T13:19:23.023Z,12.23
2019-02-07T13:22:06.854Z,13.30
2019-02-07T13:24:41.332Z,12.53
2019-02-07T13:27:19.464Z,12.63
2019-02-07T13:30:06.326Z,11.67
2019-02-07T13:32:37.260Z,12.33
2019-02-07T13:35:25.453Z,12.97
2019-02-07T13:37:56.380Z,13.50
2019-02-07T13:40:42.144Z,13.43
2019-02-07T13:43:28.912Z,12.60
2019-02-07T13:46:05.581Z,13.13
2019-02-07T13:48:52.527Z,14.07
2019-02-07T15:36:41.174Z,17.10
2019-02-07T15:39:12.132Z,14.50
2019-02-07T15:41:41.423Z,12.03
2019-02-07T15:44:10.737Z,10.57
2019-02-07T15:46:40.024Z,11.97
2019-02-07T15:49:09.346Z,10.97
2019-02-07T15:51:38.727Z,11.50
2019-02-07T15:54:08.069Z,12.07
2019-02-07T15:56:37.356Z,11.37
2019-02-07T15:59:08.289Z,12.00
2019-02-07T16:01:39.253Z,11.03
2019-02-07T16:04:12.958Z,11.30
2019-02-07T16:06:42.790Z,11.00
2019-02-07T16:09:12.083Z,10.77
2019-02-07T16:11:41.462Z,11.43
2019-02-07T16:14:10.768Z,11.07
2019-02-07T16:16:40.071Z,11.07
2019-02-07T16:19:09.453Z,11.13
2019-02-07T16:21:38.989Z,11.93
2019-02-07T16:24:08.277Z,12.07
2019-02-07T16:26:37.589Z,11.83
2019-02-07T16:29:06.952Z,12.23
2019-02-07T16:31:36.268Z,12.27
2019-02-07T16:34:05.557Z,12.57
2019-02-07T16:36:35.051Z,12.77
2019-02-07T16:39:06.881Z,14.40
2019-02-07T16:41:36.193Z,12.70
2019-02-07T16:44:05.509Z,13.73
2019-02-07T16:46:34.870Z,13.97
2019-02-07T16:49:04.261Z,15.10
2019-02-07T16:51:33.553Z,13.97
2019-02-07T16:54:02.882Z,13.77
2019-02-07T16:56:32.165Z,13.63
2019-02-07T16:59:01.575Z,14.60
2019-02-07T17:01:31.950Z,15.13
2019-02-07T17:04:01.261Z,14.00
2019-02-07T17:06:30.554Z,15.83
2019-02-07T17:09:00.113Z,16.10
2019-02-07T17:11:29.406Z,14.63
2019-02-07T17:13:58.726Z,17.23
2019-02-07T17:16:28.050Z,17.60
2019-02-07T17:18:57.361Z,21.77
2019-02-07T17:21:26.682Z,22.43
2019-02-07T17:23:56.064Z,24.07
2019-02-07T17:26:25.442Z,23.83
2019-02-07T17:28:54.761Z,26.27
2019-02-07T17:31:24.119Z,23.70
2019-02-07T17:33:53.421Z,28.40
2019-02-07T17:36:22.754Z,29.13
2019-02-07T17:38:52.047Z,30.17
2019-02-07T17:41:21.372Z,27.80
2019-02-07T17:43:50.663Z,26.33
2019-02-07T17:46:19.986Z,22.67
2019-02-07T17:48:49.291Z,22.23
2019-02-07T17:51:23.366Z,21.07
2019-02-07T17:53:49.824Z,20.17
2019-02-07T17:56:19.137Z,21.17
2019-02-07T17:58:48.457Z,20.20
2019-02-07T18:01:17.777Z,21.20
2019-02-07T18:03:47.068Z,20.73
2019-02-07T18:06:16.563Z,21.27
2019-02-07T18:08:45.877Z,20.87
2019-02-07T18:11:15.215Z,19.73
2019-02-07T18:13:44.501Z,19.27
2019-02-07T18:16:13.818Z,19.37
2019-02-07T18:18:43.143Z,22.83
2019-02-07T18:21:12.828Z,20.13
2019-02-07T18:23:42.186Z,19.80
2019-02-07T18:26:11.561Z,20.17
2019-02-07T18:28:40.892Z,20.47
2019-02-07T18:31:10.186Z,20.17
2019-02-07T18:33:41.173Z,19.93
2019-02-07T18:36:10.519Z,19.87
2019-02-07T18:38:39.842Z,22.07
2019-02-07T18:41:09.152Z,20.80
2019-02-07T18:43:38.483Z,19.77
2019-02-07T18:46:07.772Z,22.07
2019-02-07T18:48:37.229Z,22.03
2019-02-07T18:51:06.831Z,19.87
2019-02-07T18:53:36.149Z,21.73
2019-02-07T18:56:05.508Z,22.50
2019-02-07T18:58:34.802Z,24.03
2019-02-07T19:01:04.147Z,24.93
2019-02-07T19:03:33.438Z,23.17
2019-02-07T19:06:03.070Z,27.17
2019-02-07T19:08:32.360Z,21.47
2019-02-07T19:11:01.679Z,18.17
2019-02-07T19:13:30.969Z,20.10
2019-02-07T19:16:01.702Z,19.17
2019-02-07T19:18:30.996Z,19.07
2019-02-07T19:21:00.320Z,19.70
2019-02-07T19:23:29.638Z,18.63
2019-02-07T19:25:58.961Z,18.67
2019-02-07T19:28:28.257Z,22.10
2019-02-07T19:30:57.589Z,21.30
2019-02-07T19:33:26.918Z,20.20
2019-02-07T19:35:56.230Z,21.17
2019-02-07T19:38:25.600Z,20.13
2019-02-07T19:40:54.907Z,18.90
2019-02-07T19:43:24.221Z,20.13
2019-02-07T19:45:53.523Z,20.03
2019-02-07T19:48:22.837Z,20.77
2019-02-07T19:50:52.160Z,20.50
2019-02-07T19:53:21.671Z,20.87
2019-02-07T19:55:50.967Z,21.70
2019-02-07T19:58:38.860Z,22.47
2019-02-07T20:01:08.191Z,19.77
2019-02-07T20:03:37.485Z,19.20
2019-02-07T20:06:06.821Z,20.97
2019-02-07T20:08:36.146Z,20.93
2019-02-07T20:11:05.646Z,20.07
2019-02-07T20:13:35.054Z,19.13
2019-02-07T20:16:04.341Z,21.07
2019-02-07T20:18:33.771Z,20.63
2019-02-07T20:21:03.348Z,23.20
2019-02-07T20:23:32.679Z,22.20
2019-02-07T20:26:02.041Z,22.93
2019-02-07T20:28:31.341Z,21.40
2019-02-07T20:31:00.670Z,20.50
2019-02-07T20:33:29.997Z,17.37
2019-02-07T20:35:59.326Z,15.87
2019-02-07T20:38:28.831Z,18.33
2019-02-07T20:40:58.129Z,18.77
2019-02-07T20:43:27.459Z,20.23
2019-02-07T20:45:56.786Z,22.10
2019-02-07T20:48:26.086Z,20.87
2019-02-07T20:50:55.406Z,23.40
2019-02-07T20:53:24.720Z,23.33
2019-02-07T20:55:54.025Z,22.83
2019-02-07T20:58:23.352Z,22.20
2019-02-07T21:00:52.652Z,21.33
2019-02-07T21:03:21.975Z,21.57
2019-02-07T21:05:51.300Z,21.13
2019-02-07T21:08:20.593Z,19.33
2019-02-07T21:10:50.172Z,21.23
2019-02-07T21:13:19.498Z,21.47
2019-02-07T21:15:48.794Z,21.03
2019-02-07T21:18:18.116Z,21.93
2019-02-07T21:20:47.442Z,22.13
2019-02-07T21:23:16.795Z,18.67
2019-02-07T21:25:49.966Z,18.30
2019-02-07T21:28:19.285Z,18.33
2019-02-07T21:30:48.608Z,20.60
2019-02-07T21:33:17.936Z,20.33
2019-02-07T21:35:47.261Z,20.13
2019-02-07T21:38:16.633Z,19.33
2019-02-07T21:40:45.946Z,20.37
2019-02-07T21:43:15.537Z,19.90
2019-02-07T21:45:44.837Z,20.10
2019-02-07T21:48:14.167Z,20.93
2019-02-07T21:50:43.465Z,20.33
2019-02-07T21:53:12.788Z,20.07
2019-02-07T21:55:42.122Z,21.20
2019-02-07T21:58:12.221Z,21.90
2019-02-07T22:00:46.727Z,20.73
2019-02-07T22:03:16.155Z,19.10
2019-02-07T22:05:45.477Z,16.67
2019-02-07T22:08:14.805Z,17.87
2019-02-07T22:10:44.102Z,19.10
2019-02-07T22:13:13.804Z,18.43
2019-02-07T22:15:43.102Z,19.83
2019-02-07T22:18:12.425Z,19.37
2019-02-07T22:20:41.756Z,20.23
2019-02-07T22:23:11.046Z,20.53
2019-02-07T22:25:40.372Z,20.40
2019-02-07T22:28:10.719Z,19.93
2019-02-07T22:30:40.114Z,20.57
2019-02-07T22:33:09.521Z,20.23
2019-02-07T22:35:38.866Z,18.63
2019-02-07T22:38:08.165Z,20.43
2019-02-07T22:40:37.468Z,20.73
2019-02-07T22:43:07.070Z,20.63
2019-02-07T22:45:36.396Z,20.20
2019-02-07T22:48:06.135Z,21.20
2019-02-07T22:50:35.453Z,20.80
2019-02-07T22:53:04.948Z,21.37
2019-02-07T22:55:34.248Z,21.30
2019-02-07T22:58:04.297Z,20.77
2019-02-07T23:00:44.933Z,19.73
2019-02-07T23:03:19.388Z,19.63
2019-02-07T23:05:48.715Z,17.80
2019-02-07T23:08:18.004Z,20.67
2019-02-07T23:10:47.605Z,14.17
2019-02-07T23:13:16.939Z,18.43
2019-02-07T23:15:46.242Z,19.87
2019-02-07T23:18:15.540Z,18.87
2019-02-07T23:20:44.861Z,21.73
2019-02-07T23:23:14.191Z,20.00
2019-02-07T23:25:43.672Z,20.10
2019-02-07T23:28:12.996Z,21.30
2019-02-07T23:30:42.294Z,20.40
2019-02-07T23:33:11.623Z,19.87
2019-02-07T23:35:40.925Z,18.30
2019-02-07T23:38:10.253Z,18.77
2019-02-07T23:40:39.831Z,20.80
2019-02-07T23:43:09.585Z,18.40
2019-02-07T23:45:38.889Z,17.90
2019-02-07T23:48:08.180Z,19.10
2019-02-07T23:50:37.493Z,19.47
2019-02-07T23:53:14.252Z,18.67
2019-02-07T23:55:37.881Z,20.53
2019-02-07T23:58:07.187Z,19.63
